sensor_id;sensor_type;location;lat;lon;timestamp;P1;durP1;ratioP1;P2;durP2;ratioP2
51366;SDS011;37458;49.428;8.646;2022-07-31T00:01:12;4.00;;;3.13;;
51366;SDS011;37458;49.428;8.646;2022-07-31T00:03:38;3.10;;;2.63;;
51366;SDS011;37458;49.428;8.646;2022-07-31T00:06:04;3.93;;;2.50;;
51366;SDS011;37458;49.428;8.646;2022-07-31T00:08:30;6.50;;;2.67;;
51366;SDS011;37458;49.428;8.646;2022-07-31T00:10:56;5.37;;;2.77;;
51366;SDS011;37458;49.428;8.646;2022-07-31T00:13:22;4.03;;;2.60;;
51366;SDS011;37458;49.428;8.646;2022-07-31T00:15:48;6.30;;;2.50;;
51366;SDS011;37458;49.428;8.646;2022-07-31T00:18:14;6.87;;;2.90;;
51366;SDS011;37458;49.428;8.646;2022-07-31T00:20:40;4.07;;;2.57;;
51366;SDS011;37458;49.428;8.646;2022-07-31T00:23:06;3.40;;;2.67;;
51366;SDS011;37458;49.428;8.646;2022-07-31T00:25:32;6.03;;;2.70;;
51366;SDS011;37458;49.428;8.646;2022-07-31T00:27:58;3.57;;;2.63;;
51366;SDS011;37458;49.428;8.646;2022-07-31T00:30:24;3.33;;;3.03;;
51366;SDS011;37458;49.428;8.646;2022-07-31T00:32:50;4.20;;;2.50;;
51366;SDS011;37458;49.428;8.646;2022-07-31T00:35:16;3.17;;;2.77;;
51366;SDS011;37458;49.428;8.646;2022-07-31T00:37:43;5.87;;;2.80;;
51366;SDS011;37458;49.428;8.646;2022-07-31T00:40:10;4.97;;;2.73;;
51366;SDS011;37458;49.428;8.646;2022-07-31T00:42:37;4.03;;;3.03;;
51366;SDS011;37458;49.428;8.646;2022-07-31T00:45:03;4.30;;;3.07;;
51366;SDS011;37458;49.428;8.646;2022-07-31T00:47:29;3.23;;;2.90;;
51366;SDS011;37458;49.428;8.646;2022-07-31T00:49:55;6.43;;;2.87;;
51366;SDS011;37458;49.428;8.646;2022-07-31T00:52:21;2.97;;;2.67;;
51366;SDS011;37458;49.428;8.646;2022-07-31T00:54:47;3.60;;;2.70;;
51366;SDS011;37458;49.428;8.646;2022-07-31T00:57:13;3.43;;;2.50;;
51366;SDS011;37458;49.428;8.646;2022-07-31T00:59:39;5.17;;;2.63;;
51366;SDS011;37458;49.428;8.646;2022-07-31T01:02:06;4.63;;;2.87;;
51366;SDS011;37458;49.428;8.646;2022-07-31T01:04:32;6.90;;;3.07;;
51366;SDS011;37458;49.428;8.646;2022-07-31T01:06:58;4.40;;;3.10;;
51366;SDS011;37458;49.428;8.646;2022-07-31T01:09:25;3.43;;;3.07;;
51366;SDS011;37458;49.428;8.646;2022-07-31T01:11:55;5.17;;;3.40;;
51366;SDS011;37458;49.428;8.646;2022-07-31T01:14:23;5.03;;;3.53;;
51366;SDS011;37458;49.428;8.646;2022-07-31T01:16:50;6.17;;;3.03;;
51366;SDS011;37458;49.428;8.646;2022-07-31T01:19:22;3.90;;;3.60;;
51366;SDS011;37458;49.428;8.646;2022-07-31T01:27:04;4.17;;;3.23;;
51366;SDS011;37458;49.428;8.646;2022-07-31T01:29:34;5.17;;;3.73;;
51366;SDS011;37458;49.428;8.646;2022-07-31T01:32:07;4.17;;;3.37;;
51366;SDS011;37458;49.428;8.646;2022-07-31T01:34:36;3.40;;;3.07;;
51366;SDS011;37458;49.428;8.646;2022-07-31T01:37:11;3.60;;;3.20;;
51366;SDS011;37458;49.428;8.646;2022-07-31T01:39:39;3.63;;;2.83;;
51366;SDS011;37458;49.428;8.646;2022-07-31T01:42:08;4.47;;;3.00;;
51366;SDS011;37458;49.428;8.646;2022-07-31T01:44:37;6.50;;;3.27;;
51366;SDS011;37458;49.428;8.646;2022-07-31T01:47:05;7.47;;;3.10;;
51366;SDS011;37458;49.428;8.646;2022-07-31T01:49:32;3.87;;;3.43;;
51366;SDS011;37458;49.428;8.646;2022-07-31T01:51:58;3.60;;;3.30;;
51366;SDS011;37458;49.428;8.646;2022-07-31T01:54:25;4.20;;;3.50;;
51366;SDS011;37458;49.428;8.646;2022-07-31T01:56:52;5.20;;;3.63;;
51366;SDS011;37458;49.428;8.646;2022-07-31T01:59:19;6.27;;;3.50;;
51366;SDS011;37458;49.428;8.646;2022-07-31T02:01:45;5.20;;;3.33;;
51366;SDS011;37458;49.428;8.646;2022-07-31T02:04:12;4.00;;;3.57;;
51366;SDS011;37458;49.428;8.646;2022-07-31T02:06:39;4.93;;;3.50;;
51366;SDS011;37458;49.428;8.646;2022-07-31T02:09:05;4.60;;;3.43;;
51366;SDS011;37458;49.428;8.646;2022-07-31T02:11:31;3.67;;;3.20;;
51366;SDS011;37458;49.428;8.646;2022-07-31T02:13:57;4.83;;;3.53;;
51366;SDS011;37458;49.428;8.646;2022-07-31T02:16:24;4.60;;;3.50;;
51366;SDS011;37458;49.428;8.646;2022-07-31T02:18:51;4.03;;;3.40;;
51366;SDS011;37458;49.428;8.646;2022-07-31T02:21:18;4.20;;;2.93;;
51366;SDS011;37458;49.428;8.646;2022-07-31T02:23:44;5.90;;;3.37;;
51366;SDS011;37458;49.428;8.646;2022-07-31T02:26:11;6.60;;;3.40;;
51366;SDS011;37458;49.428;8.646;2022-07-31T02:28:39;3.40;;;3.03;;
51366;SDS011;37458;49.428;8.646;2022-07-31T02:31:11;4.27;;;3.00;;
51366;SDS011;37458;49.428;8.646;2022-07-31T02:33:38;5.90;;;3.40;;
51366;SDS011;37458;49.428;8.646;2022-07-31T02:36:04;4.10;;;2.70;;
51366;SDS011;37458;49.428;8.646;2022-07-31T02:38:31;6.30;;;2.90;;
51366;SDS011;37458;49.428;8.646;2022-07-31T02:40:58;4.77;;;3.37;;
51366;SDS011;37458;49.428;8.646;2022-07-31T02:43:26;3.30;;;3.00;;
51366;SDS011;37458;49.428;8.646;2022-07-31T02:45:52;3.83;;;3.20;;
51366;SDS011;37458;49.428;8.646;2022-07-31T02:48:19;4.50;;;3.73;;
51366;SDS011;37458;49.428;8.646;2022-07-31T02:50:45;5.37;;;3.50;;
51366;SDS011;37458;49.428;8.646;2022-07-31T02:53:11;5.27;;;3.40;;
51366;SDS011;37458;49.428;8.646;2022-07-31T02:55:37;3.87;;;3.30;;
51366;SDS011;37458;49.428;8.646;2022-07-31T02:58:04;3.47;;;3.10;;
51366;SDS011;37458;49.428;8.646;2022-07-31T03:00:30;6.13;;;3.03;;
51366;SDS011;37458;49.428;8.646;2022-07-31T03:02:56;5.53;;;2.90;;
51366;SDS011;37458;49.428;8.646;2022-07-31T03:05:22;7.20;;;3.10;;
51366;SDS011;37458;49.428;8.646;2022-07-31T03:07:48;3.37;;;2.80;;
51366;SDS011;37458;49.428;8.646;2022-07-31T03:10:14;4.10;;;2.87;;
51366;SDS011;37458;49.428;8.646;2022-07-31T03:12:41;2.90;;;2.60;;
51366;SDS011;37458;49.428;8.646;2022-07-31T03:15:08;3.30;;;3.00;;
51366;SDS011;37458;49.428;8.646;2022-07-31T03:17:39;3.33;;;2.77;;
51366;SDS011;37458;49.428;8.646;2022-07-31T03:20:07;3.70;;;2.53;;
51366;SDS011;37458;49.428;8.646;2022-07-31T03:22:33;5.17;;;2.83;;
51366;SDS011;37458;49.428;8.646;2022-07-31T03:24:59;3.03;;;2.43;;
51366;SDS011;37458;49.428;8.646;2022-07-31T03:27:26;2.90;;;2.60;;
51366;SDS011;37458;49.428;8.646;2022-07-31T03:29:52;4.63;;;2.50;;
51366;SDS011;37458;49.428;8.646;2022-07-31T03:32:18;5.67;;;2.53;;
51366;SDS011;37458;49.428;8.646;2022-07-31T03:34:45;5.50;;;2.67;;
51366;SDS011;37458;49.428;8.646;2022-07-31T03:37:11;3.30;;;2.83;;
51366;SDS011;37458;49.428;8.646;2022-07-31T03:39:37;2.70;;;2.10;;
51366;SDS011;37458;49.428;8.646;2022-07-31T03:42:03;3.10;;;2.47;;
51366;SDS011;37458;49.428;8.646;2022-07-31T03:44:30;2.73;;;2.50;;
51366;SDS011;37458;49.428;8.646;2022-07-31T03:46:57;8.27;;;2.90;;
51366;SDS011;37458;49.428;8.646;2022-07-31T03:49:24;2.57;;;2.33;;
51366;SDS011;37458;49.428;8.646;2022-07-31T03:51:51;3.37;;;2.70;;
51366;SDS011;37458;49.428;8.646;2022-07-31T03:54:17;2.97;;;2.63;;
51366;SDS011;37458;49.428;8.646;2022-07-31T03:56:44;3.60;;;2.90;;
51366;SDS011;37458;49.428;8.646;2022-07-31T03:59:11;3.47;;;2.40;;
51366;SDS011;37458;49.428;8.646;2022-07-31T04:01:38;6.37;;;2.33;;
51366;SDS011;37458;49.428;8.646;2022-07-31T04:04:04;3.80;;;2.80;;
51366;SDS011;37458;49.428;8.646;2022-07-31T04:06:30;6.33;;;2.83;;
51366;SDS011;37458;49.428;8.646;2022-07-31T04:08:56;10.63;;;3.00;;
51366;SDS011;37458;49.428;8.646;2022-07-31T04:11:22;5.63;;;3.03;;
51366;SDS011;37458;49.428;8.646;2022-07-31T04:13:48;2.87;;;2.53;;
51366;SDS011;37458;49.428;8.646;2022-07-31T04:16:14;4.77;;;2.70;;
51366;SDS011;37458;49.428;8.646;2022-07-31T04:18:40;2.70;;;2.50;;
51366;SDS011;37458;49.428;8.646;2022-07-31T04:21:06;7.23;;;2.30;;
51366;SDS011;37458;49.428;8.646;2022-07-31T04:23:32;3.70;;;2.47;;
51366;SDS011;37458;49.428;8.646;2022-07-31T04:25:58;4.77;;;2.40;;
51366;SDS011;37458;49.428;8.646;2022-07-31T04:28:24;3.17;;;2.20;;
51366;SDS011;37458;49.428;8.646;2022-07-31T04:30:50;2.70;;;2.47;;
51366;SDS011;37458;49.428;8.646;2022-07-31T04:33:16;4.27;;;2.50;;
51366;SDS011;37458;49.428;8.646;2022-07-31T04:35:42;2.63;;;2.30;;
51366;SDS011;37458;49.428;8.646;2022-07-31T04:38:08;3.37;;;2.23;;
51366;SDS011;37458;49.428;8.646;2022-07-31T04:40:36;2.30;;;2.07;;
51366;SDS011;37458;49.428;8.646;2022-07-31T04:43:01;3.73;;;2.20;;
51366;SDS011;37458;49.428;8.646;2022-07-31T04:45:28;3.13;;;2.10;;
51366;SDS011;37458;49.428;8.646;2022-07-31T04:47:54;2.67;;;2.47;;
51366;SDS011;37458;49.428;8.646;2022-07-31T04:50:20;3.63;;;2.47;;
51366;SDS011;37458;49.428;8.646;2022-07-31T04:52:46;4.33;;;2.17;;
51366;SDS011;37458;49.428;8.646;2022-07-31T04:55:13;3.77;;;2.37;;
51366;SDS011;37458;49.428;8.646;2022-07-31T04:57:39;4.17;;;2.33;;
51366;SDS011;37458;49.428;8.646;2022-07-31T05:00:06;4.23;;;2.17;;
51366;SDS011;37458;49.428;8.646;2022-07-31T05:02:33;3.67;;;2.30;;
51366;SDS011;37458;49.428;8.646;2022-07-31T05:04:59;3.47;;;2.27;;
51366;SDS011;37458;49.428;8.646;2022-07-31T05:07:25;3.03;;;2.30;;
51366;SDS011;37458;49.428;8.646;2022-07-31T05:09:51;4.63;;;2.20;;
51366;SDS011;37458;49.428;8.646;2022-07-31T05:12:18;6.63;;;2.23;;
51366;SDS011;37458;49.428;8.646;2022-07-31T05:14:43;4.80;;;2.77;;
51366;SDS011;37458;49.428;8.646;2022-07-31T05:17:09;2.73;;;2.43;;
51366;SDS011;37458;49.428;8.646;2022-07-31T05:19:35;2.40;;;2.20;;
51366;SDS011;37458;49.428;8.646;2022-07-31T05:22:02;3.53;;;2.30;;
51366;SDS011;37458;49.428;8.646;2022-07-31T05:24:29;2.53;;;2.30;;
51366;SDS011;37458;49.428;8.646;2022-07-31T05:26:55;3.20;;;2.60;;
51366;SDS011;37458;49.428;8.646;2022-07-31T05:29:21;2.60;;;2.13;;
51366;SDS011;37458;49.428;8.646;2022-07-31T05:31:47;3.90;;;2.30;;
51366;SDS011;37458;49.428;8.646;2022-07-31T05:34:13;3.57;;;2.27;;
51366;SDS011;37458;49.428;8.646;2022-07-31T05:36:39;3.87;;;2.30;;
51366;SDS011;37458;49.428;8.646;2022-07-31T05:39:05;2.83;;;2.50;;
51366;SDS011;37458;49.428;8.646;2022-07-31T05:41:31;8.23;;;2.67;;
51366;SDS011;37458;49.428;8.646;2022-07-31T05:43:58;3.37;;;2.27;;
51366;SDS011;37458;49.428;8.646;2022-07-31T05:46:24;2.53;;;2.30;;
51366;SDS011;37458;49.428;8.646;2022-07-31T05:48:50;4.20;;;2.37;;
51366;SDS011;37458;49.428;8.646;2022-07-31T05:51:16;2.50;;;2.30;;
51366;SDS011;37458;49.428;8.646;2022-07-31T05:53:42;3.17;;;2.50;;
51366;SDS011;37458;49.428;8.646;2022-07-31T05:56:08;3.77;;;2.37;;
51366;SDS011;37458;49.428;8.646;2022-07-31T05:58:34;2.80;;;2.60;;
51366;SDS011;37458;49.428;8.646;2022-07-31T06:01:00;4.90;;;2.23;;
51366;SDS011;37458;49.428;8.646;2022-07-31T06:03:26;5.53;;;2.67;;
51366;SDS011;37458;49.428;8.646;2022-07-31T06:05:53;5.27;;;2.63;;
51366;SDS011;37458;49.428;8.646;2022-07-31T06:08:19;3.63;;;2.43;;
51366;SDS011;37458;49.428;8.646;2022-07-31T06:10:45;3.03;;;2.50;;
51366;SDS011;37458;49.428;8.646;2022-07-31T06:13:11;3.97;;;2.73;;
51366;SDS011;37458;49.428;8.646;2022-07-31T06:15:39;3.33;;;2.67;;
51366;SDS011;37458;49.428;8.646;2022-07-31T06:18:05;4.20;;;2.60;;
51366;SDS011;37458;49.428;8.646;2022-07-31T06:20:31;5.90;;;2.67;;
51366;SDS011;37458;49.428;8.646;2022-07-31T06:22:57;9.00;;;2.77;;
51366;SDS011;37458;49.428;8.646;2022-07-31T06:25:23;4.60;;;2.80;;
51366;SDS011;37458;49.428;8.646;2022-07-31T06:27:49;5.60;;;2.60;;
51366;SDS011;37458;49.428;8.646;2022-07-31T06:30:15;2.93;;;2.70;;
51366;SDS011;37458;49.428;8.646;2022-07-31T06:32:41;3.27;;;2.60;;
51366;SDS011;37458;49.428;8.646;2022-07-31T06:35:07;4.20;;;2.87;;
51366;SDS011;37458;49.428;8.646;2022-07-31T06:37:34;6.03;;;2.80;;
51366;SDS011;37458;49.428;8.646;2022-07-31T06:40:00;2.80;;;2.33;;
51366;SDS011;37458;49.428;8.646;2022-07-31T06:42:26;3.90;;;2.60;;
51366;SDS011;37458;49.428;8.646;2022-07-31T06:44:52;4.87;;;2.70;;
51366;SDS011;37458;49.428;8.646;2022-07-31T06:47:20;4.20;;;2.50;;
51366;SDS011;37458;49.428;8.646;2022-07-31T06:49:46;5.47;;;2.80;;
51366;SDS011;37458;49.428;8.646;2022-07-31T06:52:12;3.17;;;2.30;;
51366;SDS011;37458;49.428;8.646;2022-07-31T06:54:38;6.13;;;2.57;;
51366;SDS011;37458;49.428;8.646;2022-07-31T06:57:04;3.43;;;2.57;;
51366;SDS011;37458;49.428;8.646;2022-07-31T06:59:30;3.27;;;2.57;;
51366;SDS011;37458;49.428;8.646;2022-07-31T07:01:56;4.37;;;2.63;;
51366;SDS011;37458;49.428;8.646;2022-07-31T07:04:22;5.10;;;2.30;;
51366;SDS011;37458;49.428;8.646;2022-07-31T07:06:48;5.90;;;2.53;;
51366;SDS011;37458;49.428;8.646;2022-07-31T07:09:14;4.77;;;2.50;;
51366;SDS011;37458;49.428;8.646;2022-07-31T07:11:39;3.00;;;2.20;;
51366;SDS011;37458;49.428;8.646;2022-07-31T07:14:05;4.13;;;2.55;;
51366;SDS011;37458;49.428;8.646;2022-07-31T07:16:31;9.00;;;2.40;;
51366;SDS011;37458;49.428;8.646;2022-07-31T07:18:57;4.10;;;2.80;;
51366;SDS011;37458;49.428;8.646;2022-07-31T07:21:23;4.25;;;2.40;;
51366;SDS011;37458;49.428;8.646;2022-07-31T07:23:50;4.85;;;2.50;;
51366;SDS011;37458;49.428;8.646;2022-07-31T07:26:16;2.40;;;2.20;;
51366;SDS011;37458;49.428;8.646;2022-07-31T07:28:42;7.82;;;2.60;;
51366;SDS011;37458;49.428;8.646;2022-07-31T07:31:09;5.20;;;2.50;;
51366;SDS011;37458;49.428;8.646;2022-07-31T07:33:35;7.88;;;2.50;;
51366;SDS011;37458;49.428;8.646;2022-07-31T07:36:01;5.28;;;3.05;;
51366;SDS011;37458;49.428;8.646;2022-07-31T07:38:27;5.13;;;2.42;;
51366;SDS011;37458;49.428;8.646;2022-07-31T07:40:53;4.10;;;2.67;;
51366;SDS011;37458;49.428;8.646;2022-07-31T07:43:19;4.38;;;2.80;;
51366;SDS011;37458;49.428;8.646;2022-07-31T07:45:45;5.72;;;2.72;;
51366;SDS011;37458;49.428;8.646;2022-07-31T07:48:11;4.57;;;2.15;;
51366;SDS011;37458;49.428;8.646;2022-07-31T07:50:37;2.97;;;2.47;;
51366;SDS011;37458;49.428;8.646;2022-07-31T07:53:03;4.00;;;2.65;;
51366;SDS011;37458;49.428;8.646;2022-07-31T07:55:29;3.03;;;2.75;;
51366;SDS011;37458;49.428;8.646;2022-07-31T07:57:55;4.15;;;2.70;;
51366;SDS011;37458;49.428;8.646;2022-07-31T08:00:21;3.90;;;2.60;;
51366;SDS011;37458;49.428;8.646;2022-07-31T08:02:47;6.15;;;2.65;;
51366;SDS011;37458;49.428;8.646;2022-07-31T08:05:14;4.80;;;2.47;;
51366;SDS011;37458;49.428;8.646;2022-07-31T08:07:40;3.55;;;2.65;;
51366;SDS011;37458;49.428;8.646;2022-07-31T08:10:07;5.88;;;2.85;;
51366;SDS011;37458;49.428;8.646;2022-07-31T08:12:34;3.00;;;2.70;;
51366;SDS011;37458;49.428;8.646;2022-07-31T08:15:00;2.83;;;2.63;;
51366;SDS011;37458;49.428;8.646;2022-07-31T08:17:27;4.20;;;2.70;;
51366;SDS011;37458;49.428;8.646;2022-07-31T08:19:53;5.93;;;2.83;;
51366;SDS011;37458;49.428;8.646;2022-07-31T08:22:19;3.70;;;2.92;;
51366;SDS011;37458;49.428;8.646;2022-07-31T08:24:45;3.40;;;3.10;;
51366;SDS011;37458;49.428;8.646;2022-07-31T08:27:14;3.22;;;3.00;;
51366;SDS011;37458;49.428;8.646;2022-07-31T08:29:59;4.93;;;3.10;;
51366;SDS011;37458;49.428;8.646;2022-07-31T08:32:25;3.45;;;2.88;;
51366;SDS011;37458;49.428;8.646;2022-07-31T08:34:52;3.20;;;2.90;;
51366;SDS011;37458;49.428;8.646;2022-07-31T08:37:18;4.88;;;3.13;;
51366;SDS011;37458;49.428;8.646;2022-07-31T08:39:44;4.93;;;2.83;;
51366;SDS011;37458;49.428;8.646;2022-07-31T08:42:11;4.20;;;3.00;;
51366;SDS011;37458;49.428;8.646;2022-07-31T08:44:41;5.05;;;3.20;;
51366;SDS011;37458;49.428;8.646;2022-07-31T08:47:08;3.70;;;3.40;;
51366;SDS011;37458;49.428;8.646;2022-07-31T08:49:41;4.72;;;3.60;;
51366;SDS011;37458;49.428;8.646;2022-07-31T08:52:08;3.80;;;3.50;;
51366;SDS011;37458;49.428;8.646;2022-07-31T08:54:35;6.05;;;3.60;;
51366;SDS011;37458;49.428;8.646;2022-07-31T08:57:02;3.60;;;3.30;;
51366;SDS011;37458;49.428;8.646;2022-07-31T08:59:28;6.95;;;3.55;;
51366;SDS011;37458;49.428;8.646;2022-07-31T09:01:54;3.95;;;3.50;;
51366;SDS011;37458;49.428;8.646;2022-07-31T09:04:21;6.70;;;3.70;;
51366;SDS011;37458;49.428;8.646;2022-07-31T09:06:48;6.80;;;3.92;;
51366;SDS011;37458;49.428;8.646;2022-07-31T09:09:14;4.18;;;3.78;;
51366;SDS011;37458;49.428;8.646;2022-07-31T09:11:48;4.30;;;3.72;;
51366;SDS011;37458;49.428;8.646;2022-07-31T09:14:23;3.83;;;3.50;;
51366;SDS011;37458;49.428;8.646;2022-07-31T09:16:49;4.18;;;3.75;;
51366;SDS011;37458;49.428;8.646;2022-07-31T09:19:16;5.53;;;3.45;;
51366;SDS011;37458;49.428;8.646;2022-07-31T09:21:43;3.65;;;3.17;;
51366;SDS011;37458;49.428;8.646;2022-07-31T09:24:11;3.15;;;2.85;;
51366;SDS011;37458;49.428;8.646;2022-07-31T09:26:38;3.25;;;2.92;;
51366;SDS011;37458;49.428;8.646;2022-07-31T09:29:05;3.95;;;2.75;;
51366;SDS011;37458;49.428;8.646;2022-07-31T09:31:36;2.70;;;2.50;;
51366;SDS011;37458;49.428;8.646;2022-07-31T09:34:02;3.92;;;2.58;;
51366;SDS011;37458;49.428;8.646;2022-07-31T09:36:29;2.67;;;2.47;;
51366;SDS011;37458;49.428;8.646;2022-07-31T09:38:55;4.70;;;2.70;;
51366;SDS011;37458;49.428;8.646;2022-07-31T09:41:21;3.05;;;2.75;;
51366;SDS011;37458;49.428;8.646;2022-07-31T09:44:01;5.13;;;2.70;;
51366;SDS011;37458;49.428;8.646;2022-07-31T09:46:40;3.97;;;2.80;;
51366;SDS011;37458;49.428;8.646;2022-07-31T09:49:07;2.70;;;2.50;;
51366;SDS011;37458;49.428;8.646;2022-07-31T09:51:36;6.18;;;2.85;;
51366;SDS011;37458;49.428;8.646;2022-07-31T09:54:03;3.35;;;2.80;;
51366;SDS011;37458;49.428;8.646;2022-07-31T09:56:29;3.17;;;2.80;;
51366;SDS011;37458;49.428;8.646;2022-07-31T09:58:56;3.25;;;3.05;;
51366;SDS011;37458;49.428;8.646;2022-07-31T10:01:22;3.53;;;3.08;;
51366;SDS011;37458;49.428;8.646;2022-07-31T10:03:51;3.60;;;3.30;;
51366;SDS011;37458;49.428;8.646;2022-07-31T10:06:18;6.22;;;3.17;;
51366;SDS011;37458;49.428;8.646;2022-07-31T10:08:44;5.40;;;2.83;;
51366;SDS011;37458;49.428;8.646;2022-07-31T10:11:12;3.00;;;2.80;;
51366;SDS011;37458;49.428;8.646;2022-07-31T10:13:39;5.38;;;2.60;;
51366;SDS011;37458;49.428;8.646;2022-07-31T10:16:06;3.15;;;2.72;;
51366;SDS011;37458;49.428;8.646;2022-07-31T10:18:34;4.93;;;2.78;;
51366;SDS011;37458;49.428;8.646;2022-07-31T10:21:02;2.90;;;2.70;;
51366;SDS011;37458;49.428;8.646;2022-07-31T10:23:29;7.97;;;2.90;;
51366;SDS011;37458;49.428;8.646;2022-07-31T10:25:58;4.93;;;2.70;;
51366;SDS011;37458;49.428;8.646;2022-07-31T10:28:25;4.28;;;3.45;;
51366;SDS011;37458;49.428;8.646;2022-07-31T10:30:52;3.50;;;3.13;;
51366;SDS011;37458;49.428;8.646;2022-07-31T10:33:19;3.60;;;2.53;;
51366;SDS011;37458;49.428;8.646;2022-07-31T10:41:07;3.70;;;3.38;;
51366;SDS011;37458;49.428;8.646;2022-07-31T10:43:42;2.80;;;2.60;;
51366;SDS011;37458;49.428;8.646;2022-07-31T10:46:10;3.67;;;3.05;;
51366;SDS011;37458;49.428;8.646;2022-07-31T10:48:36;4.40;;;2.85;;
51366;SDS011;37458;49.428;8.646;2022-07-31T10:51:04;3.65;;;3.33;;
51366;SDS011;37458;49.428;8.646;2022-07-31T10:53:31;3.22;;;3.00;;
51366;SDS011;37458;49.428;8.646;2022-07-31T10:56:04;3.83;;;3.45;;
51366;SDS011;37458;49.428;8.646;2022-07-31T10:58:34;7.82;;;3.72;;
51366;SDS011;37458;49.428;8.646;2022-07-31T11:01:04;3.80;;;3.50;;
51366;SDS011;37458;49.428;8.646;2022-07-31T11:03:36;4.00;;;3.60;;
51366;SDS011;37458;49.428;8.646;2022-07-31T11:06:02;4.18;;;3.47;;
51366;SDS011;37458;49.428;8.646;2022-07-31T11:08:41;3.70;;;3.40;;
51366;SDS011;37458;49.428;8.646;2022-07-31T11:11:08;6.90;;;3.28;;
51366;SDS011;37458;49.428;8.646;2022-07-31T11:13:50;6.50;;;3.20;;
51366;SDS011;37458;49.428;8.646;2022-07-31T11:16:17;4.65;;;2.92;;
51366;SDS011;37458;49.428;8.646;2022-07-31T11:18:43;3.45;;;3.13;;
51366;SDS011;37458;49.428;8.646;2022-07-31T11:21:11;3.30;;;3.00;;
51366;SDS011;37458;49.428;8.646;2022-07-31T11:23:37;4.43;;;3.50;;
51366;SDS011;37458;49.428;8.646;2022-07-31T11:26:05;3.40;;;3.10;;
51366;SDS011;37458;49.428;8.646;2022-07-31T11:28:32;3.47;;;3.17;;
51366;SDS011;37458;49.428;8.646;2022-07-31T11:30:59;3.70;;;3.25;;
51366;SDS011;37458;49.428;8.646;2022-07-31T11:33:47;4.30;;;3.42;;
51366;SDS011;37458;49.428;8.646;2022-07-31T11:36:16;6.43;;;3.10;;
51366;SDS011;37458;49.428;8.646;2022-07-31T11:38:47;3.25;;;2.95;;
51366;SDS011;37458;49.428;8.646;2022-07-31T11:41:16;3.67;;;2.95;;
51366;SDS011;37458;49.428;8.646;2022-07-31T11:43:43;3.38;;;2.60;;
51366;SDS011;37458;49.428;8.646;2022-07-31T11:46:10;3.15;;;2.60;;
51366;SDS011;37458;49.428;8.646;2022-07-31T11:48:37;3.50;;;2.67;;
51366;SDS011;37458;49.428;8.646;2022-07-31T11:51:03;2.50;;;2.28;;
51366;SDS011;37458;49.428;8.646;2022-07-31T11:53:29;2.50;;;2.30;;
51366;SDS011;37458;49.428;8.646;2022-07-31T11:55:57;3.53;;;2.70;;
51366;SDS011;37458;49.428;8.646;2022-07-31T11:58:23;3.13;;;2.80;;
51366;SDS011;37458;49.428;8.646;2022-07-31T12:00:53;3.03;;;2.80;;
51366;SDS011;37458;49.428;8.646;2022-07-31T12:03:23;3.33;;;2.63;;
51366;SDS011;37458;49.428;8.646;2022-07-31T12:05:51;3.40;;;2.50;;
51366;SDS011;37458;49.428;8.646;2022-07-31T12:08:17;3.28;;;2.20;;
51366;SDS011;37458;49.428;8.646;2022-07-31T12:10:44;3.03;;;2.30;;
51366;SDS011;37458;49.428;8.646;2022-07-31T12:13:11;4.28;;;2.22;;
51366;SDS011;37458;49.428;8.646;2022-07-31T12:15:37;2.58;;;2.38;;
51366;SDS011;37458;49.428;8.646;2022-07-31T12:18:03;4.10;;;2.05;;
51366;SDS011;37458;49.428;8.646;2022-07-31T12:20:30;5.00;;;2.60;;
51366;SDS011;37458;49.428;8.646;2022-07-31T12:22:59;3.90;;;2.25;;
51366;SDS011;37458;49.428;8.646;2022-07-31T12:25:25;4.13;;;2.40;;
51366;SDS011;37458;49.428;8.646;2022-07-31T12:27:52;2.30;;;2.10;;
51366;SDS011;37458;49.428;8.646;2022-07-31T12:30:19;4.80;;;2.60;;
51366;SDS011;37458;49.428;8.646;2022-07-31T12:32:46;2.45;;;2.35;;
51366;SDS011;37458;49.428;8.646;2022-07-31T12:35:12;2.70;;;2.50;;
51366;SDS011;37458;49.428;8.646;2022-07-31T12:37:43;4.53;;;2.60;;
51366;SDS011;37458;49.428;8.646;2022-07-31T12:40:19;3.15;;;2.85;;
51366;SDS011;37458;49.428;8.646;2022-07-31T12:42:46;5.05;;;3.42;;
51366;SDS011;37458;49.428;8.646;2022-07-31T12:45:12;4.45;;;3.55;;
51366;SDS011;37458;49.428;8.646;2022-07-31T12:47:38;4.13;;;3.60;;
51366;SDS011;37458;49.428;8.646;2022-07-31T12:50:04;7.88;;;3.95;;
51366;SDS011;37458;49.428;8.646;2022-07-31T12:52:30;6.68;;;3.78;;
51366;SDS011;37458;49.428;8.646;2022-07-31T12:54:58;3.72;;;3.40;;
51366;SDS011;37458;49.428;8.646;2022-07-31T12:57:24;4.13;;;3.72;;
51366;SDS011;37458;49.428;8.646;2022-07-31T12:59:50;3.53;;;3.33;;
51366;SDS011;37458;49.428;8.646;2022-07-31T13:02:17;3.33;;;3.00;;
51366;SDS011;37458;49.428;8.646;2022-07-31T13:04:43;3.20;;;3.00;;
51366;SDS011;37458;49.428;8.646;2022-07-31T13:07:09;3.10;;;2.90;;
51366;SDS011;37458;49.428;8.646;2022-07-31T13:09:35;4.18;;;2.78;;
51366;SDS011;37458;49.428;8.646;2022-07-31T13:12:01;3.00;;;2.63;;
51366;SDS011;37458;49.428;8.646;2022-07-31T13:14:27;3.08;;;2.78;;
51366;SDS011;37458;49.428;8.646;2022-07-31T13:16:54;2.70;;;2.50;;
51366;SDS011;37458;49.428;8.646;2022-07-31T13:19:21;2.78;;;2.55;;
51366;SDS011;37458;49.428;8.646;2022-07-31T13:21:47;3.80;;;2.58;;
51366;SDS011;37458;49.428;8.646;2022-07-31T13:24:13;5.07;;;3.00;;
51366;SDS011;37458;49.428;8.646;2022-07-31T13:26:39;3.15;;;2.95;;
51366;SDS011;37458;49.428;8.646;2022-07-31T13:29:08;4.28;;;3.30;;
51366;SDS011;37458;49.428;8.646;2022-07-31T13:31:34;5.93;;;3.30;;
51366;SDS011;37458;49.428;8.646;2022-07-31T13:34:01;4.03;;;3.20;;
51366;SDS011;37458;49.428;8.646;2022-07-31T13:36:26;4.35;;;3.42;;
51366;SDS011;37458;49.428;8.646;2022-07-31T13:38:53;3.92;;;3.50;;
51366;SDS011;37458;49.428;8.646;2022-07-31T13:41:18;3.92;;;3.45;;
51366;SDS011;37458;49.428;8.646;2022-07-31T13:43:45;4.13;;;3.70;;
51366;SDS011;37458;49.428;8.646;2022-07-31T13:46:11;4.32;;;3.13;;
51366;SDS011;37458;49.428;8.646;2022-07-31T13:48:37;4.32;;;2.90;;
51366;SDS011;37458;49.428;8.646;2022-07-31T13:51:03;4.80;;;2.78;;
51366;SDS011;37458;49.428;8.646;2022-07-31T13:53:29;3.53;;;2.70;;
51366;SDS011;37458;49.428;8.646;2022-07-31T13:55:55;3.70;;;2.78;;
51366;SDS011;37458;49.428;8.646;2022-07-31T13:58:22;4.40;;;2.97;;
51366;SDS011;37458;49.428;8.646;2022-07-31T14:00:51;4.80;;;3.45;;
51366;SDS011;37458;49.428;8.646;2022-07-31T14:03:17;2.83;;;2.53;;
51366;SDS011;37458;49.428;8.646;2022-07-31T14:05:43;4.00;;;2.30;;
51366;SDS011;37458;49.428;8.646;2022-07-31T14:08:09;7.10;;;2.67;;
51366;SDS011;37458;49.428;8.646;2022-07-31T14:10:35;4.22;;;2.40;;
51366;SDS011;37458;49.428;8.646;2022-07-31T14:13:01;6.68;;;2.58;;
51366;SDS011;37458;49.428;8.646;2022-07-31T14:15:27;2.72;;;2.30;;
51366;SDS011;37458;49.428;8.646;2022-07-31T14:17:53;2.50;;;2.25;;
51366;SDS011;37458;49.428;8.646;2022-07-31T14:20:19;6.03;;;2.25;;
51366;SDS011;37458;49.428;8.646;2022-07-31T14:22:45;4.10;;;2.30;;
51366;SDS011;37458;49.428;8.646;2022-07-31T14:25:11;4.28;;;2.40;;
51366;SDS011;37458;49.428;8.646;2022-07-31T14:27:37;5.30;;;2.53;;
51366;SDS011;37458;49.428;8.646;2022-07-31T14:30:07;4.72;;;2.40;;
51366;SDS011;37458;49.428;8.646;2022-07-31T14:32:34;2.50;;;2.30;;
51366;SDS011;37458;49.428;8.646;2022-07-31T14:35:00;4.32;;;2.25;;
51366;SDS011;37458;49.428;8.646;2022-07-31T14:37:26;2.45;;;2.28;;
51366;SDS011;37458;49.428;8.646;2022-07-31T14:39:52;2.63;;;2.40;;
51366;SDS011;37458;49.428;8.646;2022-07-31T14:42:18;4.50;;;2.25;;
51366;SDS011;37458;49.428;8.646;2022-07-31T14:44:45;2.33;;;2.13;;
51366;SDS011;37458;49.428;8.646;2022-07-31T14:47:11;2.78;;;2.28;;
51366;SDS011;37458;49.428;8.646;2022-07-31T14:49:38;6.43;;;2.15;;
51366;SDS011;37458;49.428;8.646;2022-07-31T14:52:04;2.63;;;2.10;;
51366;SDS011;37458;49.428;8.646;2022-07-31T14:54:30;2.75;;;2.20;;
51366;SDS011;37458;49.428;8.646;2022-07-31T14:56:56;2.90;;;2.00;;